createdAt,value
2022-10-27T00:01:34.945Z,23.77
2022-10-27T00:04:09.311Z,22.17
2022-10-27T00:06:42.675Z,34.03
2022-10-27T00:09:16.138Z,24.57
2022-10-27T00:11:50.271Z,29.23
2022-10-27T00:14:23.998Z,27.65
2022-10-27T00:16:58.619Z,23.10
2022-10-27T00:19:32.748Z,22.50
2022-10-27T00:22:06.124Z,24.80
2022-10-27T00:24:39.519Z,22.20
2022-10-27T00:27:13.035Z,21.13
2022-10-27T00:29:47.658Z,21.70
2022-10-27T00:32:21.820Z,21.50
2022-10-27T00:34:55.673Z,19.90
2022-10-27T00:37:29.794Z,19.97
2022-10-27T00:40:03.390Z,17.27
2022-10-27T00:42:36.998Z,20.40
2022-10-27T00:45:13.423Z,17.20
2022-10-27T00:47:47.894Z,20.53
2022-10-27T00:50:25.289Z,17.07
2022-10-27T00:53:01.687Z,22.50
2022-10-27T00:55:39.529Z,21.27
2022-10-27T00:58:17.541Z,18.17
2022-10-27T01:00:51.252Z,15.27
2022-10-27T01:03:26.296Z,15.73
2022-10-27T01:06:01.287Z,16.63
2022-10-27T01:08:34.965Z,15.10
2022-10-27T01:11:09.135Z,15.03
2022-10-27T01:13:43.443Z,13.17
2022-10-27T01:16:28.922Z,16.80
2022-10-27T01:19:16.238Z,11.73
2022-10-27T01:22:12.437Z,11.87
2022-10-27T01:25:21.420Z,13.57
2022-10-27T01:28:19.857Z,9.93
2022-10-27T01:31:06.159Z,12.07
2022-10-27T01:33:44.982Z,10.23
2022-10-27T01:36:25.288Z,12.17
2022-10-27T01:39:05.901Z,10.90
2022-10-27T01:41:45.220Z,10.13
2022-10-27T01:44:24.305Z,10.57
2022-10-27T01:46:58.726Z,9.77
2022-10-27T01:49:38.222Z,9.90
2022-10-27T01:52:42.955Z,9.70
2022-10-27T01:55:25.252Z,9.83
2022-10-27T01:58:33.288Z,7.97
2022-10-27T02:01:19.916Z,8.97
2022-10-27T02:04:00.942Z,10.40
2022-10-27T02:06:43.141Z,8.37
2022-10-27T02:09:22.474Z,8.00
2022-10-27T02:11:59.199Z,8.70
2022-10-27T02:14:32.749Z,7.37
2022-10-27T02:17:08.308Z,9.03
2022-10-27T02:19:44.097Z,7.80
2022-10-27T02:22:18.935Z,8.87
2022-10-27T02:24:54.260Z,10.10
2022-10-27T02:27:35.090Z,8.47
2022-10-27T02:30:11.293Z,7.33
2022-10-27T02:32:46.187Z,7.67
2022-10-27T02:35:20.711Z,9.20
2022-10-27T02:37:54.809Z,8.10
2022-10-27T02:40:28.744Z,9.17
2022-10-27T02:43:02.633Z,7.87
2022-10-27T02:45:36.021Z,7.60
2022-10-27T02:48:09.630Z,7.70
2022-10-27T02:50:43.538Z,9.50
2022-10-27T02:56:13.630Z,8.40
2022-10-27T02:58:47.156Z,11.07
2022-10-27T03:01:21.043Z,8.63
2022-10-27T03:03:54.503Z,8.23
2022-10-27T03:06:27.837Z,11.43
2022-10-27T03:09:02.062Z,7.10
2022-10-27T03:11:39.579Z,7.70
2022-10-27T03:14:16.230Z,8.43
2022-10-27T03:16:49.599Z,12.03
2022-10-27T03:19:23.325Z,9.93
2022-10-27T03:21:57.536Z,9.30
2022-10-27T03:24:30.882Z,9.70
2022-10-27T03:27:04.941Z,10.20
2022-10-27T03:29:38.440Z,8.97
2022-10-27T03:32:11.927Z,8.67
2022-10-27T03:34:45.523Z,10.27
2022-10-27T03:37:18.815Z,8.20
2022-10-27T03:39:52.327Z,9.13
2022-10-27T03:42:25.720Z,11.97
2022-10-27T03:44:59.627Z,10.80
2022-10-27T03:47:33.836Z,8.50
2022-10-27T03:50:09.186Z,8.27
2022-10-27T03:52:43.697Z,10.40
2022-10-27T03:55:17.497Z,10.20
2022-10-27T03:57:52.569Z,9.67
2022-10-27T04:00:28.965Z,10.40
2022-10-27T04:03:02.814Z,11.03
2022-10-27T04:05:36.851Z,9.37
2022-10-27T04:08:11.291Z,11.20
2022-10-27T04:10:44.844Z,10.93
2022-10-27T04:13:25.499Z,10.33
2022-10-27T04:16:06.396Z,11.20
2022-10-27T04:18:39.983Z,10.23
2022-10-27T04:21:13.594Z,9.20
2022-10-27T04:23:47.541Z,12.70
2022-10-27T04:26:21.091Z,11.90
2022-10-27T04:28:54.799Z,10.90
2022-10-27T04:31:28.196Z,13.07
2022-10-27T04:34:01.797Z,13.27
2022-10-27T04:36:35.301Z,11.57
2022-10-27T04:39:08.917Z,10.27
2022-10-27T04:41:42.477Z,13.20
2022-10-27T04:44:15.967Z,14.60
2022-10-27T04:46:49.365Z,9.97
2022-10-27T04:49:22.728Z,12.03
2022-10-27T04:51:56.318Z,11.53
2022-10-27T04:54:30.651Z,11.90
2022-10-27T04:57:04.269Z,13.37
2022-10-27T04:59:37.535Z,11.03
2022-10-27T05:02:12.312Z,13.60
2022-10-27T05:04:45.552Z,10.97
2022-10-27T05:07:18.748Z,13.50
2022-10-27T05:09:52.925Z,12.33
2022-10-27T05:12:26.630Z,15.77
2022-10-27T05:15:00.296Z,12.17
2022-10-27T05:17:34.301Z,14.63
2022-10-27T05:20:09.528Z,11.90
2022-10-27T05:22:42.936Z,15.77
2022-10-27T05:25:17.904Z,12.13
2022-10-27T05:27:52.168Z,10.40
2022-10-27T05:30:26.396Z,14.40
2022-10-27T05:33:00.109Z,17.87
2022-10-27T05:35:34.362Z,17.10
2022-10-27T05:38:07.917Z,20.63
2022-10-27T05:40:41.302Z,16.63
2022-10-27T05:43:15.214Z,17.50
2022-10-27T05:45:48.826Z,18.50
2022-10-27T05:48:22.315Z,15.23
2022-10-27T05:50:59.094Z,18.37
2022-10-27T05:53:32.489Z,16.00
2022-10-27T05:56:06.240Z,20.93
2022-10-27T05:58:39.687Z,15.43
2022-10-27T06:01:13.954Z,17.97
2022-10-27T06:03:47.139Z,16.70
2022-10-27T06:06:20.887Z,15.50
2022-10-27T06:08:54.443Z,16.43
2022-10-27T06:11:27.879Z,16.17
2022-10-27T06:14:01.278Z,26.97
2022-10-27T06:16:34.878Z,29.20
2022-10-27T06:19:08.881Z,31.10
2022-10-27T06:21:42.401Z,30.83
2022-10-27T06:24:16.090Z,29.37
2022-10-27T06:26:53.116Z,27.10
2022-10-27T06:29:29.952Z,29.17
2022-10-27T06:32:03.443Z,27.57
2022-10-27T06:34:36.943Z,20.93
2022-10-27T06:37:10.710Z,19.50
2022-10-27T06:39:44.448Z,16.43
2022-10-27T06:42:18.114Z,15.33
2022-10-27T06:44:57.381Z,22.10
2022-10-27T06:47:30.926Z,21.50
2022-10-27T06:50:04.382Z,16.50
2022-10-27T06:52:41.055Z,22.17
2022-10-27T06:55:14.735Z,11.27
2022-10-27T06:57:48.632Z,10.47
2022-10-27T07:00:25.022Z,12.27
2022-10-27T07:02:58.292Z,10.17
2022-10-27T07:05:32.370Z,12.40
2022-10-27T07:08:06.121Z,11.57
2022-10-27T07:10:40.128Z,10.93
2022-10-27T07:13:13.637Z,12.60
2022-10-27T07:15:47.839Z,11.40
2022-10-27T07:18:21.207Z,11.60
2022-10-27T07:20:55.038Z,12.70
2022-10-27T07:23:28.435Z,13.40
2022-10-27T07:26:02.351Z,11.83
2022-10-27T07:28:36.258Z,12.50
2022-10-27T07:31:09.796Z,15.20
2022-10-27T07:33:43.390Z,14.07
2022-10-27T07:36:17.563Z,14.03
2022-10-27T07:38:50.583Z,12.57
2022-10-27T07:41:24.360Z,11.57
2022-10-27T07:43:57.880Z,14.30
2022-10-27T07:46:32.307Z,17.63
2022-10-27T07:49:06.500Z,18.33
2022-10-27T07:51:39.888Z,13.87
2022-10-27T07:54:13.817Z,13.63
2022-10-27T07:56:49.225Z,17.83
2022-10-27T07:59:22.557Z,14.30
2022-10-27T08:01:56.539Z,12.00
2022-10-27T08:04:30.415Z,13.23
2022-10-27T08:07:04.537Z,16.77
2022-10-27T08:09:38.007Z,12.77
2022-10-27T08:12:12.118Z,13.95
2022-10-27T08:14:45.854Z,12.60
2022-10-27T08:17:19.784Z,12.87
2022-10-27T08:19:53.358Z,12.63
2022-10-27T08:22:27.065Z,12.93
2022-10-27T08:25:02.732Z,9.50
2022-10-27T08:27:38.698Z,14.80
2022-10-27T08:30:13.967Z,8.30
2022-10-27T08:32:47.715Z,10.83
2022-10-27T08:35:21.315Z,10.67
2022-10-27T08:38:01.673Z,11.63
2022-10-27T08:40:45.287Z,9.20
2022-10-27T08:43:35.889Z,9.80
2022-10-27T08:46:15.477Z,9.20
2022-10-27T08:48:50.781Z,9.27
2022-10-27T08:51:27.927Z,7.83
2022-10-27T08:54:03.062Z,7.97
2022-10-27T08:56:40.764Z,11.20
2022-10-27T08:59:20.736Z,12.93
2022-10-27T09:02:03.978Z,9.13
2022-10-27T09:05:07.789Z,9.10
2022-10-27T09:07:50.535Z,8.17
2022-10-27T09:10:43.932Z,11.17
2022-10-27T09:13:31.079Z,9.77
2022-10-27T09:16:08.231Z,8.13
2022-10-27T09:18:46.732Z,14.43
2022-10-27T09:21:23.881Z,11.67
2022-10-27T09:24:00.197Z,7.60
2022-10-27T09:26:36.403Z,8.33
2022-10-27T09:29:17.461Z,7.07
2022-10-27T09:32:01.713Z,8.90
2022-10-27T09:34:41.725Z,7.35
2022-10-27T09:37:18.181Z,6.80
2022-10-27T09:39:53.827Z,6.33
2022-10-27T09:42:30.478Z,8.63
2022-10-27T09:45:14.054Z,5.83
2022-10-27T09:47:51.354Z,5.93
2022-10-27T09:50:28.335Z,6.27
2022-10-27T09:53:01.843Z,9.37
2022-10-27T09:55:52.865Z,7.27
2022-10-27T09:58:26.453Z,6.60
2022-10-27T10:01:05.654Z,7.30
2022-10-27T10:03:39.728Z,14.37
2022-10-27T10:06:30.070Z,8.53
2022-10-27T10:09:23.049Z,10.73
2022-10-27T10:12:23.121Z,7.97
2022-10-27T10:15:21.094Z,4.33
2022-10-27T10:18:00.246Z,10.33
2022-10-27T10:23:26.349Z,8.53
2022-10-27T10:26:01.138Z,6.93
2022-10-27T10:28:39.015Z,6.73
2022-10-27T10:31:16.053Z,6.70
2022-10-27T10:33:50.838Z,8.13
2022-10-27T10:36:30.977Z,9.27
2022-10-27T10:39:04.757Z,8.60
2022-10-27T10:55:27.634Z,6.47
2022-10-27T11:01:53.106Z,5.50
2022-10-27T11:04:48.002Z,5.63
2022-10-27T11:07:41.365Z,8.83
2022-10-27T11:10:39.254Z,6.47
2022-10-27T11:13:40.503Z,7.70
2022-10-27T11:16:34.063Z,8.20
2022-10-27T11:19:35.599Z,6.80
2022-10-27T11:22:29.659Z,8.33
2022-10-27T11:25:25.258Z,6.70
2022-10-27T11:28:24.638Z,6.57
2022-10-27T11:31:23.918Z,7.37
2022-10-27T11:34:26.806Z,6.67
2022-10-27T11:37:26.172Z,6.53
2022-10-27T11:40:27.472Z,8.07
2022-10-27T11:43:27.271Z,11.20
2022-10-27T11:46:22.280Z,7.13
2022-10-27T11:49:22.972Z,6.67
2022-10-27T11:52:18.637Z,7.90
2022-10-27T11:55:14.777Z,6.03
2022-10-27T11:58:13.648Z,4.73
2022-10-27T12:01:16.653Z,3.93
2022-10-27T12:04:27.201Z,9.50
2022-10-27T12:07:29.990Z,6.23
2022-10-27T12:10:35.732Z,7.90
2022-10-27T12:13:34.470Z,7.93
2022-10-27T12:16:32.114Z,6.90
2022-10-27T12:19:29.771Z,7.30
2022-10-27T12:22:29.315Z,6.70
2022-10-27T12:25:29.117Z,7.90
2022-10-27T12:28:22.587Z,5.00
2022-10-27T12:31:19.804Z,8.90
2022-10-27T12:34:15.516Z,5.63
2022-10-27T12:37:13.653Z,8.80
2022-10-27T12:40:12.957Z,12.47
2022-10-27T12:43:18.623Z,4.33
2022-10-27T12:46:25.012Z,5.13
2022-10-27T12:49:27.283Z,10.03
2022-10-27T12:52:24.585Z,9.23
2022-10-27T12:55:43.913Z,8.40
2022-10-27T12:58:48.028Z,6.10
2022-10-27T13:01:51.809Z,5.63
2022-10-27T13:05:20.019Z,11.53
2022-10-27T13:12:09.560Z,5.23
2022-10-27T13:15:26.240Z,7.97
2022-10-27T13:18:32.182Z,8.30
2022-10-27T13:21:31.852Z,7.40
2022-10-27T13:24:32.788Z,5.87
2022-10-27T13:27:30.813Z,9.00
2022-10-27T13:30:25.038Z,7.57
2022-10-27T13:33:34.025Z,10.03
2022-10-27T13:36:28.015Z,8.97
2022-10-27T13:39:45.414Z,7.07
2022-10-27T13:42:38.347Z,6.83
2022-10-27T13:45:51.285Z,6.70
2022-10-27T13:48:59.780Z,7.03
2022-10-27T13:52:12.128Z,11.43
2022-10-27T13:55:38.359Z,6.45
2022-10-27T13:58:51.404Z,9.43
2022-10-27T14:01:53.957Z,8.80
2022-10-27T14:04:51.491Z,7.50
2022-10-27T14:07:46.090Z,10.30
2022-10-27T14:10:40.434Z,8.30
2022-10-27T14:13:40.636Z,6.83
2022-10-27T14:16:35.271Z,9.07
2022-10-27T14:19:30.671Z,9.13
2022-10-27T14:22:40.707Z,12.67
2022-10-27T14:25:35.060Z,8.57
2022-10-27T14:28:27.567Z,6.07
2022-10-27T14:31:24.107Z,6.63
2022-10-27T14:34:23.362Z,8.53
2022-10-27T14:37:20.773Z,9.17
2022-10-27T14:40:21.238Z,12.50
2022-10-27T14:43:23.055Z,7.97
2022-10-27T14:46:22.506Z,12.30
2022-10-27T14:49:30.711Z,11.87
2022-10-27T14:52:30.943Z,7.53
2022-10-27T14:55:37.139Z,10.77
2022-10-27T14:58:28.884Z,9.13
2022-10-27T15:01:34.428Z,9.53
2022-10-27T15:04:29.099Z,10.77
2022-10-27T15:07:24.102Z,8.53
2022-10-27T15:10:20.357Z,9.97
2022-10-27T15:13:18.548Z,10.53
2022-10-27T15:16:16.172Z,9.90
2022-10-27T15:19:13.615Z,12.37
2022-10-27T15:22:06.267Z,9.90
2022-10-27T15:25:00.083Z,10.13
2022-10-27T15:27:51.934Z,16.27
2022-10-27T15:30:45.310Z,15.60
2022-10-27T15:33:41.536Z,13.57
2022-10-27T15:36:34.493Z,13.27
2022-10-27T15:39:28.586Z,25.13
2022-10-27T15:42:23.496Z,29.13
2022-10-27T15:45:39.774Z,23.17
2022-10-27T15:48:40.176Z,30.57
2022-10-27T15:51:47.150Z,25.27
2022-10-27T15:54:43.377Z,29.17
2022-10-27T15:57:39.024Z,27.63
2022-10-27T16:00:31.463Z,27.37
2022-10-27T16:03:34.484Z,33.83
2022-10-27T16:06:33.456Z,42.70
2022-10-27T16:09:42.771Z,40.33
2022-10-27T16:12:43.082Z,49.23
2022-10-27T16:15:37.576Z,41.63
2022-10-27T16:18:29.709Z,35.37
2022-10-27T16:21:28.528Z,32.90
2022-10-27T16:24:24.754Z,29.27
2022-10-27T16:27:20.729Z,27.33
2022-10-27T16:30:19.349Z,45.27
2022-10-27T16:33:16.354Z,29.97
2022-10-27T16:36:12.388Z,39.20
2022-10-27T16:39:05.376Z,30.13
2022-10-27T16:41:57.496Z,31.57
2022-10-27T16:44:49.485Z,29.98
2022-10-27T16:47:41.551Z,28.43
2022-10-27T16:50:33.431Z,31.12
2022-10-27T16:53:26.182Z,26.47
2022-10-27T16:56:18.919Z,26.13
2022-10-27T16:59:10.856Z,31.90
2022-10-27T17:02:03.257Z,37.15
2022-10-27T17:04:55.537Z,35.97
2022-10-27T17:07:48.573Z,33.93
2022-10-27T17:10:40.621Z,31.90
2022-10-27T17:13:33.472Z,27.13
2022-10-27T17:16:25.767Z,43.57
2022-10-27T17:19:18.767Z,33.20
2022-10-27T17:22:10.594Z,31.67
2022-10-27T17:25:01.826Z,39.23
2022-10-27T17:27:55.080Z,40.40
2022-10-27T17:30:48.161Z,34.23
2022-10-27T17:33:40.963Z,29.83
2022-10-27T17:36:33.277Z,38.37
2022-10-27T17:39:26.334Z,37.97
2022-10-27T17:42:18.395Z,34.75
2022-10-27T17:45:12.769Z,38.27
2022-10-27T17:48:05.099Z,34.47
2022-10-27T17:51:03.092Z,37.98
2022-10-27T17:53:55.621Z,41.77
2022-10-27T17:59:38.807Z,45.50
2022-10-27T18:02:32.448Z,54.27
2022-10-27T18:05:27.354Z,48.53
2022-10-27T18:08:21.382Z,61.40
2022-10-27T18:11:16.951Z,47.60
2022-10-27T18:14:14.330Z,40.93
2022-10-27T18:17:08.130Z,47.60
2022-10-27T18:20:00.337Z,57.57
2022-10-27T18:25:45.783Z,46.33
2022-10-27T18:28:38.958Z,59.15
2022-10-27T18:31:36.396Z,55.27
2022-10-27T18:34:29.557Z,46.33
2022-10-27T18:37:22.124Z,47.77
2022-10-27T18:43:06.191Z,52.93
2022-10-27T18:46:02.076Z,43.00
2022-10-27T18:48:56.542Z,53.03
2022-10-27T18:51:48.424Z,50.27
2022-10-27T18:54:40.545Z,53.33
2022-10-27T18:57:32.488Z,46.48
2022-10-27T19:00:26.425Z,53.17
2022-10-27T19:03:19.847Z,45.70
2022-10-27T19:06:15.246Z,53.27
2022-10-27T19:09:07.612Z,49.93
2022-10-27T19:12:00.911Z,49.30
2022-10-27T19:14:53.136Z,55.25
2022-10-27T19:17:45.945Z,60.17
2022-10-27T19:20:37.515Z,50.23
2022-10-27T19:23:31.553Z,60.00
2022-10-27T19:26:25.807Z,54.10
2022-10-27T19:29:18.093Z,47.47
2022-10-27T19:32:10.519Z,45.97
2022-10-27T19:35:03.240Z,52.97
2022-10-27T19:37:55.608Z,56.30
2022-10-27T19:40:48.378Z,54.27
2022-10-27T19:43:42.598Z,54.00
2022-10-27T19:46:38.311Z,49.63
2022-10-27T19:52:20.625Z,48.53
2022-10-27T19:55:13.244Z,45.83
2022-10-27T20:00:55.839Z,45.60
2022-10-27T20:03:48.609Z,43.60
2022-10-27T20:06:46.398Z,45.30
2022-10-27T20:09:38.060Z,43.53
2022-10-27T20:12:31.044Z,47.13
2022-10-27T20:15:22.968Z,47.30
2022-10-27T20:18:14.766Z,36.38
2022-10-27T20:21:07.208Z,34.60
2022-10-27T20:24:00.442Z,38.47
2022-10-27T20:26:53.528Z,39.23
2022-10-27T20:29:45.762Z,39.60
2022-10-27T20:32:43.461Z,35.77
2022-10-27T20:35:35.980Z,35.30
2022-10-27T20:38:28.619Z,35.83
2022-10-27T20:41:22.958Z,37.90
2022-10-27T20:44:15.130Z,37.37
2022-10-27T20:47:07.384Z,38.13
2022-10-27T20:52:49.969Z,43.80
2022-10-27T20:55:42.237Z,39.55
2022-10-27T20:58:34.477Z,40.48
2022-10-27T21:01:31.403Z,35.37
2022-10-27T21:04:23.861Z,39.33
2022-10-27T21:07:15.894Z,38.13
2022-10-27T21:10:11.370Z,39.98
2022-10-27T21:13:03.073Z,46.47
2022-10-27T21:15:59.778Z,36.97
2022-10-27T21:18:55.177Z,37.70
2022-10-27T21:21:47.258Z,39.60
2022-10-27T21:24:39.467Z,36.98
2022-10-27T21:27:31.173Z,35.80
2022-10-27T21:35:53.357Z,40.20
2022-10-27T21:38:47.196Z,35.65
2022-10-27T21:41:39.449Z,41.60
2022-10-27T21:44:31.728Z,37.50
2022-10-27T21:47:23.511Z,42.67
2022-10-27T21:50:16.324Z,39.80
2022-10-27T21:55:59.686Z,37.87
2022-10-27T22:01:25.758Z,40.23
2022-10-27T22:04:18.546Z,45.20
2022-10-27T22:07:10.328Z,46.37
2022-10-27T22:10:02.045Z,40.58
2022-10-27T22:12:54.888Z,42.65
2022-10-27T22:15:47.535Z,40.90
2022-10-27T22:18:40.869Z,41.53
2022-10-27T22:21:36.105Z,39.37
2022-10-27T22:24:28.044Z,40.50
2022-10-27T22:27:20.276Z,47.15
2022-10-27T22:30:14.338Z,43.10
2022-10-27T22:33:06.593Z,36.93
2022-10-27T22:36:04.722Z,42.67
2022-10-27T22:38:58.283Z,45.40
2022-10-27T22:41:50.472Z,39.37
2022-10-27T22:44:42.495Z,40.00
2022-10-27T22:47:35.081Z,42.10
2022-10-27T22:50:27.590Z,46.27
2022-10-27T22:53:20.405Z,41.13
2022-10-27T22:59:08.660Z,41.80
2022-10-27T23:02:01.732Z,42.63
2022-10-27T23:04:53.886Z,45.90
2022-10-27T23:07:45.911Z,41.68
2022-10-27T23:10:37.750Z,46.20
2022-10-27T23:13:32.954Z,44.42
2022-10-27T23:16:25.348Z,46.70
2022-10-27T23:19:18.550Z,40.57
2022-10-27T23:25:00.975Z,41.37
2022-10-27T23:27:56.011Z,39.97
2022-10-27T23:30:48.821Z,43.97
2022-10-27T23:33:40.962Z,43.73
2022-10-27T23:36:35.389Z,42.20
2022-10-27T23:39:27.778Z,40.30
2022-10-27T23:45:12.039Z,37.27
2022-10-27T23:48:03.985Z,38.47
2022-10-27T23:50:55.605Z,41.90
2022-10-27T23:53:49.834Z,41.07
2022-10-27T23:56:43.563Z,42.63
2022-10-27T23:59:36.208Z,38.63
